createdAt,value
2022-11-20T00:02:12.192Z,12.00
2022-11-20T00:05:14.374Z,13.20
2022-11-20T00:08:16.470Z,13.02
2022-11-20T00:11:19.710Z,13.57
2022-11-20T00:14:21.701Z,13.48
2022-11-20T00:17:24.043Z,13.38
2022-11-20T00:20:26.087Z,11.57
2022-11-20T00:23:28.115Z,13.60
2022-11-20T00:26:30.331Z,10.38
2022-11-20T00:29:32.445Z,11.87
2022-11-20T00:32:34.564Z,11.15
2022-11-20T00:35:36.549Z,14.32
2022-11-20T00:38:38.910Z,13.65
2022-11-20T00:41:40.882Z,12.77
2022-11-20T00:44:42.893Z,14.68
2022-11-20T00:47:44.922Z,12.70
2022-11-20T00:50:46.897Z,11.20
2022-11-20T00:53:48.989Z,13.32
2022-11-20T00:56:50.971Z,11.30
2022-11-20T00:59:53.022Z,12.13
2022-11-20T01:02:56.811Z,8.65
2022-11-20T01:06:05.933Z,11.10
2022-11-20T01:09:10.564Z,11.77
2022-11-20T01:12:12.590Z,11.25
2022-11-20T01:15:14.641Z,11.70
2022-11-20T01:18:16.653Z,11.40
2022-11-20T01:21:22.374Z,11.17
2022-11-20T01:24:24.400Z,10.80
2022-11-20T01:27:26.369Z,10.00
2022-11-20T01:30:29.221Z,10.43
2022-11-20T01:33:31.248Z,8.60
2022-11-20T01:36:34.199Z,8.93
2022-11-20T01:39:36.356Z,10.52
2022-11-20T01:42:56.917Z,10.65
2022-11-20T01:46:00.391Z,10.88
2022-11-20T01:49:10.754Z,10.48
2022-11-20T01:52:24.009Z,10.57
2022-11-20T01:55:33.505Z,10.75
2022-11-20T01:58:37.368Z,10.88
2022-11-20T02:01:40.281Z,10.40
2022-11-20T02:04:42.386Z,10.45
2022-11-20T02:07:44.977Z,11.38
2022-11-20T02:10:47.049Z,9.30
2022-11-20T02:13:49.604Z,11.30
2022-11-20T02:16:51.834Z,9.43
2022-11-20T02:19:54.539Z,9.88
2022-11-20T02:23:02.766Z,9.23
2022-11-20T02:26:06.106Z,9.77
2022-11-20T02:29:08.144Z,7.38
2022-11-20T02:32:23.188Z,11.17
2022-11-20T02:35:25.455Z,9.05
2022-11-20T02:38:27.641Z,11.20
2022-11-20T02:41:33.684Z,10.45
2022-11-20T02:44:35.717Z,9.23
2022-11-20T02:47:37.712Z,8.65
2022-11-20T02:50:40.967Z,10.35
2022-11-20T02:53:42.954Z,9.87
2022-11-20T02:56:44.970Z,11.40
2022-11-20T02:59:46.984Z,10.18
2022-11-20T03:02:48.988Z,10.03
2022-11-20T03:05:50.965Z,9.55
2022-11-20T03:08:52.949Z,8.95
2022-11-20T03:11:54.908Z,9.80
2022-11-20T03:14:56.920Z,9.45
2022-11-20T03:17:58.993Z,9.60
2022-11-20T03:21:01.033Z,10.60
2022-11-20T03:24:03.170Z,9.83
2022-11-20T03:27:05.319Z,10.23
2022-11-20T03:30:07.693Z,10.38
2022-11-20T03:33:09.768Z,9.23
2022-11-20T03:36:14.275Z,10.60
2022-11-20T03:39:16.324Z,11.02
2022-11-20T03:42:36.760Z,12.20
2022-11-20T03:45:38.728Z,10.75
2022-11-20T03:48:40.759Z,9.95
2022-11-20T03:51:42.730Z,10.57
2022-11-20T03:54:44.717Z,11.13
2022-11-20T03:57:46.737Z,11.80
2022-11-20T04:00:48.729Z,9.35
2022-11-20T04:03:52.605Z,12.50
2022-11-20T04:06:54.640Z,12.35
2022-11-20T04:09:56.678Z,11.68
2022-11-20T04:12:58.685Z,11.88
2022-11-20T04:16:00.725Z,12.20
2022-11-20T04:19:03.940Z,12.48
2022-11-20T04:22:05.941Z,12.00
2022-11-20T04:25:08.222Z,10.00
2022-11-20T04:28:10.718Z,11.18
2022-11-20T04:31:14.298Z,10.82
2022-11-20T04:34:16.298Z,11.20
2022-11-20T04:37:18.305Z,9.50
2022-11-20T04:40:20.326Z,11.75
2022-11-20T04:43:22.360Z,10.90
2022-11-20T04:46:24.380Z,12.07
2022-11-20T04:49:27.682Z,8.23
2022-11-20T04:52:29.765Z,11.88
2022-11-20T04:55:31.805Z,13.13
2022-11-20T04:58:34.395Z,11.63
2022-11-20T05:01:36.464Z,11.75
2022-11-20T05:04:38.648Z,11.87
2022-11-20T05:07:40.716Z,10.98
2022-11-20T05:10:42.724Z,13.82
2022-11-20T05:13:44.777Z,13.00
2022-11-20T05:16:47.049Z,13.77
2022-11-20T05:19:52.988Z,11.82
2022-11-20T05:22:57.640Z,14.68
2022-11-20T05:26:00.142Z,12.70
2022-11-20T05:29:02.129Z,14.35
2022-11-20T05:32:04.208Z,14.43
2022-11-20T05:35:06.366Z,15.67
2022-11-20T05:38:08.530Z,13.45
2022-11-20T05:41:20.654Z,13.63
2022-11-20T05:44:22.692Z,13.32
2022-11-20T05:47:24.900Z,14.07
2022-11-20T05:50:27.614Z,8.05
2022-11-20T05:53:29.854Z,13.88
2022-11-20T05:56:31.860Z,6.57
2022-11-20T05:59:33.845Z,14.43
2022-11-20T06:02:37.077Z,14.48
2022-11-20T06:05:39.107Z,12.37
2022-11-20T06:08:41.508Z,12.57
2022-11-20T06:11:43.516Z,11.75
2022-11-20T06:14:45.526Z,13.00
2022-11-20T06:17:47.493Z,11.23
2022-11-20T06:20:49.494Z,13.80
2022-11-20T06:23:52.982Z,10.85
2022-11-20T06:26:54.985Z,10.37
2022-11-20T06:29:56.973Z,12.18
2022-11-20T06:32:59.028Z,11.82
2022-11-20T06:36:04.647Z,10.63
2022-11-20T06:39:11.137Z,10.38
2022-11-20T06:42:13.189Z,13.23
2022-11-20T06:45:15.308Z,14.80
2022-11-20T06:48:17.284Z,15.75
2022-11-20T06:51:19.749Z,12.77
2022-11-20T06:54:21.770Z,11.30
2022-11-20T06:57:23.776Z,11.47
2022-11-20T07:00:25.826Z,12.93
2022-11-20T07:03:28.084Z,10.38
2022-11-20T07:06:30.092Z,15.57
2022-11-20T07:09:32.122Z,11.07
2022-11-20T07:12:34.146Z,14.60
2022-11-20T07:15:36.147Z,15.65
2022-11-20T07:18:38.311Z,14.23
2022-11-20T07:21:40.278Z,14.57
2022-11-20T07:24:46.027Z,14.30
2022-11-20T07:27:48.272Z,14.77
2022-11-20T07:30:51.405Z,14.25
2022-11-20T07:33:53.448Z,14.07
2022-11-20T07:36:55.443Z,13.83
2022-11-20T07:39:57.503Z,14.52
2022-11-20T07:42:59.558Z,13.15
2022-11-20T07:46:01.557Z,14.05
2022-11-20T07:49:03.554Z,9.27
2022-11-20T07:52:05.629Z,10.32
2022-11-20T07:55:08.052Z,9.88
2022-11-20T07:58:10.107Z,11.00
2022-11-20T08:01:12.186Z,10.95
2022-11-20T08:04:16.339Z,12.80
2022-11-20T08:07:18.361Z,11.93
2022-11-20T08:10:20.510Z,12.57
2022-11-20T08:13:40.770Z,11.68
2022-11-20T08:16:46.546Z,12.60
2022-11-20T08:19:48.552Z,12.02
2022-11-20T08:22:50.581Z,12.60
2022-11-20T08:25:52.618Z,12.85
2022-11-20T08:28:55.742Z,11.47
2022-11-20T08:31:57.813Z,13.30
2022-11-20T08:34:59.782Z,10.00
2022-11-20T08:38:02.203Z,12.80
2022-11-20T08:41:23.708Z,11.38
2022-11-20T08:44:25.750Z,12.73
2022-11-20T08:47:27.758Z,12.50
2022-11-20T08:50:30.346Z,13.02
2022-11-20T08:53:32.409Z,12.98
2022-11-20T08:56:34.430Z,13.90
2022-11-20T09:00:04.610Z,9.60
2022-11-20T09:02:59.672Z,11.07
2022-11-20T09:06:05.758Z,11.25
2022-11-20T09:09:07.808Z,12.67
2022-11-20T09:12:09.808Z,11.55
2022-11-20T09:15:12.314Z,10.98
2022-11-20T09:18:14.342Z,10.30
2022-11-20T09:21:16.441Z,13.15
2022-11-20T09:24:19.071Z,10.73
2022-11-20T09:27:24.242Z,13.30
2022-11-20T09:30:26.577Z,13.00
2022-11-20T09:33:28.874Z,11.82
2022-11-20T09:36:31.207Z,10.30
2022-11-20T09:39:33.264Z,12.47
2022-11-20T09:43:01.649Z,12.85
2022-11-20T09:46:06.614Z,12.20
2022-11-20T09:49:14.935Z,9.52
2022-11-20T09:52:16.900Z,11.43
2022-11-20T09:55:19.234Z,12.38
2022-11-20T09:58:35.889Z,10.88
2022-11-20T10:01:39.516Z,9.50
2022-11-20T10:04:44.721Z,11.52
2022-11-20T10:07:56.454Z,10.70
2022-11-20T10:11:16.818Z,11.00
2022-11-20T10:14:32.733Z,10.07
2022-11-20T10:17:34.694Z,10.20
2022-11-20T10:20:45.942Z,11.15
2022-11-20T10:24:00.457Z,10.93
2022-11-20T10:27:08.355Z,12.48
2022-11-20T10:30:12.272Z,10.75
2022-11-20T10:33:16.944Z,10.23
2022-11-20T10:36:22.113Z,11.48
2022-11-20T10:39:33.866Z,10.63
2022-11-20T10:42:39.104Z,11.70
2022-11-20T10:45:50.369Z,10.45
2022-11-20T10:48:52.694Z,10.90
2022-11-20T10:52:05.743Z,12.30
2022-11-20T10:55:26.515Z,11.18
2022-11-20T10:58:43.654Z,13.20
2022-11-20T11:01:45.633Z,9.85
2022-11-20T11:04:48.787Z,9.87
2022-11-20T11:07:51.966Z,10.07
2022-11-20T11:10:56.018Z,9.90
2022-11-20T11:14:11.332Z,11.10
2022-11-20T11:17:22.301Z,10.23
2022-11-20T11:20:26.086Z,11.13
2022-11-20T11:23:31.579Z,13.70
2022-11-20T11:26:33.576Z,10.57
2022-11-20T11:29:35.624Z,10.48
2022-11-20T11:32:37.661Z,10.88
2022-11-20T11:35:49.735Z,11.00
2022-11-20T11:38:54.095Z,10.55
2022-11-20T11:41:56.297Z,13.32
2022-11-20T11:45:06.173Z,13.57
2022-11-20T11:48:09.460Z,14.38
2022-11-20T11:51:11.466Z,14.27
2022-11-20T11:54:36.605Z,14.10
2022-11-20T11:57:44.917Z,15.55
2022-11-20T12:00:58.288Z,13.13
2022-11-20T12:04:20.577Z,12.90
2022-11-20T12:07:46.223Z,11.57
2022-11-20T12:10:49.202Z,13.82
2022-11-20T12:14:02.753Z,13.35
2022-11-20T12:17:04.960Z,12.50
2022-11-20T12:20:14.470Z,18.15
2022-11-20T12:23:24.167Z,13.40
2022-11-20T12:26:36.205Z,12.65
2022-11-20T12:29:38.183Z,15.32
2022-11-20T12:32:45.785Z,13.00
2022-11-20T12:36:05.747Z,15.63
2022-11-20T12:39:19.570Z,13.80
2022-11-20T12:42:49.190Z,13.65
2022-11-20T12:46:09.933Z,13.70
2022-11-20T12:49:26.919Z,11.77
2022-11-20T12:52:28.988Z,13.05
2022-11-20T12:55:33.800Z,13.82
2022-11-20T12:58:35.880Z,11.50
2022-11-20T13:01:44.789Z,12.27
2022-11-20T13:04:53.944Z,11.95
2022-11-20T13:07:56.208Z,13.18
2022-11-20T13:11:03.025Z,12.87
2022-11-20T13:14:07.738Z,14.02
2022-11-20T13:17:18.847Z,16.73
2022-11-20T13:20:21.250Z,12.90
2022-11-20T13:23:27.149Z,11.73
2022-11-20T13:26:29.488Z,14.95
2022-11-20T13:29:31.822Z,14.80
2022-11-20T13:32:33.825Z,15.10
2022-11-20T13:35:37.439Z,16.15
2022-11-20T13:38:49.607Z,15.88
2022-11-20T13:41:59.429Z,14.83
2022-11-20T13:45:09.777Z,16.52
2022-11-20T13:48:37.770Z,16.70
2022-11-20T13:51:40.097Z,17.47
2022-11-20T13:55:05.006Z,17.90
2022-11-20T13:58:13.514Z,17.42
2022-11-20T14:01:20.679Z,16.38
2022-11-20T14:04:27.701Z,16.83
2022-11-20T14:07:40.718Z,18.58
2022-11-20T14:10:42.816Z,17.52
2022-11-20T14:14:01.396Z,20.37
2022-11-20T14:17:10.143Z,20.75
2022-11-20T14:20:16.192Z,19.98
2022-11-20T14:23:29.787Z,18.53
2022-11-20T14:26:32.719Z,18.90
2022-11-20T14:29:36.252Z,18.45
2022-11-20T14:32:38.345Z,19.25
2022-11-20T14:35:46.417Z,18.73
2022-11-20T14:38:48.717Z,17.73
2022-11-20T14:41:54.672Z,22.00
2022-11-20T14:44:57.833Z,22.70
2022-11-20T14:48:00.851Z,23.17
2022-11-20T14:51:02.862Z,23.92
2022-11-20T14:54:18.146Z,24.13
2022-11-20T14:57:23.066Z,21.92
2022-11-20T15:00:25.650Z,28.63
2022-11-20T15:03:53.903Z,23.75
2022-11-20T15:06:57.180Z,25.33
2022-11-20T15:10:03.558Z,29.95
2022-11-20T15:13:12.996Z,26.05
2022-11-20T15:16:22.023Z,23.97
2022-11-20T15:19:25.349Z,24.88
2022-11-20T15:22:27.352Z,22.98
2022-11-20T15:25:29.462Z,23.30
2022-11-20T15:28:33.098Z,22.25
2022-11-20T15:31:35.888Z,22.42
2022-11-20T15:34:37.917Z,25.23
2022-11-20T15:37:39.972Z,25.83
2022-11-20T15:40:41.993Z,27.90
2022-11-20T15:43:44.109Z,41.25
2022-11-20T15:46:47.451Z,27.87
2022-11-20T15:49:49.433Z,36.58
2022-11-20T15:52:51.726Z,33.10
2022-11-20T15:55:54.029Z,32.40
2022-11-20T15:58:56.037Z,36.45
2022-11-20T16:01:58.096Z,27.35
2022-11-20T16:05:00.105Z,27.77
2022-11-20T16:08:04.953Z,29.67
2022-11-20T16:11:14.829Z,34.58
2022-11-20T16:14:35.577Z,41.08
2022-11-20T16:17:46.329Z,36.17
2022-11-20T16:20:52.745Z,37.33
2022-11-20T16:23:54.992Z,31.00
2022-11-20T16:26:57.193Z,33.80
2022-11-20T16:29:59.192Z,30.10
2022-11-20T16:33:01.663Z,39.88
2022-11-20T16:36:09.902Z,42.30
2022-11-20T16:39:12.300Z,43.97
2022-11-20T16:42:14.382Z,42.75
2022-11-20T16:45:21.456Z,41.80
2022-11-20T16:48:26.870Z,33.50
2022-11-20T16:51:30.005Z,27.85
2022-11-20T16:54:32.029Z,26.08
2022-11-20T16:57:35.045Z,26.33
2022-11-20T17:00:38.135Z,25.45
2022-11-20T17:03:41.057Z,28.92
2022-11-20T17:06:47.920Z,28.63
2022-11-20T17:09:49.985Z,30.58
2022-11-20T17:12:52.016Z,33.55
2022-11-20T17:15:54.026Z,32.90
2022-11-20T17:19:01.339Z,32.27
2022-11-20T17:22:05.165Z,34.80
2022-11-20T17:25:07.336Z,34.42
2022-11-20T17:28:09.756Z,36.03
2022-11-20T17:31:16.318Z,33.22
2022-11-20T17:34:18.584Z,34.83
2022-11-20T17:37:20.559Z,34.50
2022-11-20T17:40:27.139Z,32.08
2022-11-20T17:43:35.407Z,35.47
2022-11-20T17:46:38.153Z,31.70
2022-11-20T17:49:40.127Z,33.30
2022-11-20T17:52:42.192Z,33.67
2022-11-20T17:56:02.676Z,30.58
2022-11-20T17:59:05.520Z,29.47
2022-11-20T18:02:07.828Z,28.52
2022-11-20T18:05:10.184Z,26.92
2022-11-20T18:08:12.181Z,27.08
2022-11-20T18:11:16.128Z,28.77
2022-11-20T18:14:29.334Z,32.70
2022-11-20T18:17:31.374Z,31.88
2022-11-20T18:20:38.376Z,29.37
2022-11-20T18:23:42.153Z,29.45
2022-11-20T18:26:44.678Z,35.88
2022-11-20T18:29:48.745Z,37.60
2022-11-20T18:32:50.967Z,41.72
2022-11-20T18:35:53.006Z,40.20
2022-11-20T18:38:56.298Z,39.92
2022-11-20T18:42:16.623Z,38.70
2022-11-20T18:45:18.671Z,41.95
2022-11-20T18:48:20.677Z,37.30
2022-11-20T18:51:22.644Z,36.50
2022-11-20T18:54:25.146Z,37.00
2022-11-20T18:57:28.349Z,35.90
2022-11-20T19:00:30.309Z,41.60
2022-11-20T19:03:32.335Z,34.40
2022-11-20T19:06:35.225Z,35.75
2022-11-20T19:09:37.718Z,37.60
2022-11-20T19:12:39.806Z,36.75
2022-11-20T19:15:41.833Z,41.83
2022-11-20T19:18:44.462Z,44.90
2022-11-20T19:21:46.554Z,43.63
2022-11-20T19:24:48.577Z,40.63
2022-11-20T19:27:50.589Z,35.35
2022-11-20T19:30:52.688Z,36.17
2022-11-20T19:33:55.995Z,32.67
2022-11-20T19:36:58.890Z,37.25
2022-11-20T19:40:04.297Z,38.58
2022-11-20T19:43:06.671Z,41.55
2022-11-20T19:46:08.790Z,45.05
2022-11-20T19:49:11.900Z,40.05
2022-11-20T19:52:13.878Z,39.30
2022-11-20T19:55:16.009Z,44.35
2022-11-20T19:58:18.071Z,41.40
2022-11-20T20:01:21.447Z,39.60
2022-11-20T20:04:23.505Z,36.83
2022-11-20T20:07:25.621Z,36.95
2022-11-20T20:10:27.662Z,38.25
2022-11-20T20:13:29.688Z,39.38
2022-11-20T20:16:32.016Z,41.45
2022-11-20T20:19:34.149Z,40.17
2022-11-20T20:22:36.181Z,36.70
2022-11-20T20:25:41.036Z,41.15
2022-11-20T20:28:43.042Z,48.03
2022-11-20T20:31:45.066Z,47.17
2022-11-20T20:34:47.073Z,39.50
2022-11-20T20:37:49.101Z,42.13
2022-11-20T20:40:51.137Z,46.25
2022-11-20T20:44:11.817Z,45.45
2022-11-20T20:47:13.832Z,43.78
2022-11-20T20:50:15.894Z,41.17
2022-11-20T20:53:17.963Z,38.47
2022-11-20T20:56:19.958Z,43.92
2022-11-20T20:59:22.218Z,43.80
2022-11-20T21:02:24.904Z,44.10
2022-11-20T21:05:26.862Z,51.03
2022-11-20T21:08:28.874Z,52.00
2022-11-20T21:11:30.945Z,68.82
2022-11-20T21:14:33.120Z,63.58
2022-11-20T21:17:35.197Z,55.97
2022-11-20T21:20:58.213Z,55.10
2022-11-20T21:24:00.421Z,53.37
2022-11-20T21:27:03.589Z,51.45
2022-11-20T21:30:05.792Z,51.70
2022-11-20T21:33:07.865Z,49.87
2022-11-20T21:36:10.805Z,46.55
2022-11-20T21:39:13.615Z,46.92
2022-11-20T21:42:15.616Z,44.22
2022-11-20T21:45:17.568Z,44.42
2022-11-20T21:48:19.639Z,52.47
2022-11-20T21:51:22.559Z,47.50
2022-11-20T21:54:25.954Z,44.97
2022-11-20T21:57:28.171Z,46.92
2022-11-20T22:00:30.243Z,49.67
2022-11-20T22:03:32.210Z,49.30
2022-11-20T22:06:34.682Z,44.67
2022-11-20T22:09:36.669Z,43.70
2022-11-20T22:12:38.789Z,42.60
2022-11-20T22:15:59.939Z,39.17
2022-11-20T22:19:03.138Z,40.80
2022-11-20T22:22:05.283Z,37.60
2022-11-20T22:25:07.476Z,35.20
2022-11-20T22:28:10.188Z,35.08
2022-11-20T22:31:12.248Z,33.83
2022-11-20T22:34:14.743Z,37.13
2022-11-20T22:37:16.779Z,33.03
2022-11-20T22:40:18.860Z,37.45
2022-11-20T22:43:20.894Z,41.30
2022-11-20T22:46:23.739Z,35.35
2022-11-20T22:49:25.758Z,35.38
2022-11-20T22:52:27.821Z,32.35
2022-11-20T22:55:29.857Z,28.13
2022-11-20T22:58:31.859Z,31.60
2022-11-20T23:01:34.617Z,31.27
2022-11-20T23:04:36.637Z,34.83
2022-11-20T23:07:41.067Z,28.80
2022-11-20T23:10:43.349Z,30.52
2022-11-20T23:13:45.657Z,31.08
2022-11-20T23:16:47.730Z,34.42
2022-11-20T23:19:49.737Z,33.65
2022-11-20T23:22:51.756Z,33.13
2022-11-20T23:25:53.745Z,29.80
2022-11-20T23:28:57.961Z,31.75
2022-11-20T23:32:00.076Z,24.40
2022-11-20T23:35:02.148Z,30.00
2022-11-20T23:38:04.107Z,32.17
2022-11-20T23:41:06.397Z,36.25
2022-11-20T23:44:08.410Z,35.58
2022-11-20T23:47:10.444Z,33.83
2022-11-20T23:50:12.464Z,31.50
2022-11-20T23:53:15.048Z,36.20
2022-11-20T23:56:17.109Z,33.80
2022-11-20T23:59:19.127Z,34.72
